sensor_id;sensor_type;location;lat;lon;timestamp;P1;durP1;ratioP1;P2;durP2;ratioP2
71734;SDS011;59577;52.122;5.406;2024-02-16T00:01:41;3.25;;;1.40;;
71734;SDS011;59577;52.122;5.406;2024-02-16T00:04:10;3.85;;;2.03;;
71734;SDS011;59577;52.122;5.406;2024-02-16T00:06:37;6.20;;;1.50;;
71734;SDS011;59577;52.122;5.406;2024-02-16T00:09:04;1.90;;;1.35;;
71734;SDS011;59577;52.122;5.406;2024-02-16T00:11:30;2.45;;;1.20;;
71734;SDS011;59577;52.122;5.406;2024-02-16T00:13:57;7.68;;;1.60;;
71734;SDS011;59577;52.122;5.406;2024-02-16T00:16:23;3.20;;;1.63;;
71734;SDS011;59577;52.122;5.406;2024-02-16T00:18:50;3.00;;;1.60;;
71734;SDS011;59577;52.122;5.406;2024-02-16T00:21:16;5.07;;;1.60;;
71734;SDS011;59577;52.122;5.406;2024-02-16T00:23:43;3.80;;;1.95;;
71734;SDS011;59577;52.122;5.406;2024-02-16T00:26:11;5.10;;;1.42;;
71734;SDS011;59577;52.122;5.406;2024-02-16T00:28:37;2.45;;;1.13;;
71734;SDS011;59577;52.122;5.406;2024-02-16T00:31:04;5.43;;;1.70;;
71734;SDS011;59577;52.122;5.406;2024-02-16T00:33:32;2.15;;;1.60;;
71734;SDS011;59577;52.122;5.406;2024-02-16T00:36:00;3.10;;;1.40;;
71734;SDS011;59577;52.122;5.406;2024-02-16T00:38:27;4.85;;;1.85;;
71734;SDS011;59577;52.122;5.406;2024-02-16T00:40:53;4.75;;;1.60;;
71734;SDS011;59577;52.122;5.406;2024-02-16T00:43:20;4.53;;;1.80;;
71734;SDS011;59577;52.122;5.406;2024-02-16T00:45:46;3.83;;;1.80;;
71734;SDS011;59577;52.122;5.406;2024-02-16T00:48:14;3.25;;;1.73;;
71734;SDS011;59577;52.122;5.406;2024-02-16T00:50:42;4.13;;;1.50;;
71734;SDS011;59577;52.122;5.406;2024-02-16T00:53:09;3.88;;;1.58;;
71734;SDS011;59577;52.122;5.406;2024-02-16T00:55:36;2.90;;;1.67;;
71734;SDS011;59577;52.122;5.406;2024-02-16T00:58:03;4.38;;;1.60;;
71734;SDS011;59577;52.122;5.406;2024-02-16T01:00:31;5.63;;;1.70;;
71734;SDS011;59577;52.122;5.406;2024-02-16T01:02:57;2.38;;;1.50;;
71734;SDS011;59577;52.122;5.406;2024-02-16T01:05:24;4.43;;;1.60;;
71734;SDS011;59577;52.122;5.406;2024-02-16T01:07:51;2.20;;;1.40;;
71734;SDS011;59577;52.122;5.406;2024-02-16T01:10:18;2.83;;;1.40;;
71734;SDS011;59577;52.122;5.406;2024-02-16T01:12:45;5.70;;;1.92;;
71734;SDS011;59577;52.122;5.406;2024-02-16T01:15:11;2.80;;;1.45;;
71734;SDS011;59577;52.122;5.406;2024-02-16T01:17:38;4.93;;;1.60;;
71734;SDS011;59577;52.122;5.406;2024-02-16T01:20:06;3.17;;;1.60;;
71734;SDS011;59577;52.122;5.406;2024-02-16T01:22:38;4.20;;;1.90;;
71734;SDS011;59577;52.122;5.406;2024-02-16T01:25:05;1.88;;;1.17;;
71734;SDS011;59577;52.122;5.406;2024-02-16T01:27:33;3.05;;;1.60;;
71734;SDS011;59577;52.122;5.406;2024-02-16T01:30:01;5.28;;;2.00;;
71734;SDS011;59577;52.122;5.406;2024-02-16T01:32:29;4.37;;;2.40;;
71734;SDS011;59577;52.122;5.406;2024-02-16T01:34:56;2.28;;;1.20;;
71734;SDS011;59577;52.122;5.406;2024-02-16T01:37:24;1.98;;;1.45;;
71734;SDS011;59577;52.122;5.406;2024-02-16T01:39:51;2.33;;;1.67;;
71734;SDS011;59577;52.122;5.406;2024-02-16T01:42:17;3.03;;;1.90;;
71734;SDS011;59577;52.122;5.406;2024-02-16T01:44:44;2.93;;;1.80;;
71734;SDS011;59577;52.122;5.406;2024-02-16T01:47:11;4.90;;;1.63;;
71734;SDS011;59577;52.122;5.406;2024-02-16T01:49:38;4.05;;;1.50;;
71734;SDS011;59577;52.122;5.406;2024-02-16T01:52:05;2.85;;;1.52;;
71734;SDS011;59577;52.122;5.406;2024-02-16T01:54:32;3.50;;;1.58;;
71734;SDS011;59577;52.122;5.406;2024-02-16T01:56:59;2.67;;;1.50;;
71734;SDS011;59577;52.122;5.406;2024-02-16T01:59:27;4.15;;;1.63;;
71734;SDS011;59577;52.122;5.406;2024-02-16T02:01:55;3.63;;;1.48;;
71734;SDS011;59577;52.122;5.406;2024-02-16T02:04:21;5.22;;;1.60;;
71734;SDS011;59577;52.122;5.406;2024-02-16T02:06:48;5.38;;;1.90;;
71734;SDS011;59577;52.122;5.406;2024-02-16T02:09:15;4.57;;;1.97;;
71734;SDS011;59577;52.122;5.406;2024-02-16T02:11:41;2.47;;;1.65;;
71734;SDS011;59577;52.122;5.406;2024-02-16T02:14:08;3.75;;;1.88;;
71734;SDS011;59577;52.122;5.406;2024-02-16T02:16:34;2.70;;;1.60;;
71734;SDS011;59577;52.122;5.406;2024-02-16T02:19:16;4.63;;;1.70;;
71734;SDS011;59577;52.122;5.406;2024-02-16T02:21:43;4.50;;;1.70;;
71734;SDS011;59577;52.122;5.406;2024-02-16T02:24:09;3.38;;;1.58;;
71734;SDS011;59577;52.122;5.406;2024-02-16T02:26:37;3.50;;;1.73;;
71734;SDS011;59577;52.122;5.406;2024-02-16T02:29:04;3.35;;;1.92;;
71734;SDS011;59577;52.122;5.406;2024-02-16T02:31:31;3.13;;;1.63;;
71734;SDS011;59577;52.122;5.406;2024-02-16T02:33:57;3.43;;;1.57;;
71734;SDS011;59577;52.122;5.406;2024-02-16T02:36:24;4.07;;;1.63;;
71734;SDS011;59577;52.122;5.406;2024-02-16T02:38:51;4.35;;;1.95;;
71734;SDS011;59577;52.122;5.406;2024-02-16T02:41:18;5.25;;;1.75;;
71734;SDS011;59577;52.122;5.406;2024-02-16T02:43:46;2.20;;;1.45;;
71734;SDS011;59577;52.122;5.406;2024-02-16T02:46:16;4.23;;;1.70;;
71734;SDS011;59577;52.122;5.406;2024-02-16T02:48:46;4.15;;;1.70;;
71734;SDS011;59577;52.122;5.406;2024-02-16T02:51:18;2.33;;;1.60;;
71734;SDS011;59577;52.122;5.406;2024-02-16T02:53:44;5.43;;;1.75;;
71734;SDS011;59577;52.122;5.406;2024-02-16T02:56:11;1.70;;;1.30;;
71734;SDS011;59577;52.122;5.406;2024-02-16T02:58:41;2.67;;;1.43;;
71734;SDS011;59577;52.122;5.406;2024-02-16T03:01:08;2.03;;;1.70;;
71734;SDS011;59577;52.122;5.406;2024-02-16T03:03:35;6.10;;;1.98;;
71734;SDS011;59577;52.122;5.406;2024-02-16T03:06:02;4.13;;;1.73;;
71734;SDS011;59577;52.122;5.406;2024-02-16T03:08:30;3.60;;;1.40;;
71734;SDS011;59577;52.122;5.406;2024-02-16T03:10:57;4.03;;;1.50;;
71734;SDS011;59577;52.122;5.406;2024-02-16T03:13:27;4.93;;;1.60;;
71734;SDS011;59577;52.122;5.406;2024-02-16T03:15:53;3.55;;;1.80;;
71734;SDS011;59577;52.122;5.406;2024-02-16T03:18:20;5.50;;;2.17;;
71734;SDS011;59577;52.122;5.406;2024-02-16T03:20:47;6.72;;;1.48;;
71734;SDS011;59577;52.122;5.406;2024-02-16T03:23:15;3.53;;;1.70;;
71734;SDS011;59577;52.122;5.406;2024-02-16T03:25:42;8.23;;;1.70;;
71734;SDS011;59577;52.122;5.406;2024-02-16T03:28:12;3.55;;;1.67;;
71734;SDS011;59577;52.122;5.406;2024-02-16T03:30:39;2.42;;;1.58;;
71734;SDS011;59577;52.122;5.406;2024-02-16T03:33:07;3.30;;;1.63;;
71734;SDS011;59577;52.122;5.406;2024-02-16T03:35:34;4.03;;;1.67;;
71734;SDS011;59577;52.122;5.406;2024-02-16T03:38:01;3.15;;;1.70;;
71734;SDS011;59577;52.122;5.406;2024-02-16T03:40:28;5.43;;;1.80;;
71734;SDS011;59577;52.122;5.406;2024-02-16T03:42:55;4.32;;;1.67;;
71734;SDS011;59577;52.122;5.406;2024-02-16T03:45:21;5.32;;;1.65;;
71734;SDS011;59577;52.122;5.406;2024-02-16T03:47:50;3.03;;;1.63;;
71734;SDS011;59577;52.122;5.406;2024-02-16T03:50:19;2.65;;;1.90;;
71734;SDS011;59577;52.122;5.406;2024-02-16T03:52:46;4.22;;;1.70;;
71734;SDS011;59577;52.122;5.406;2024-02-16T03:55:13;3.22;;;1.95;;
71734;SDS011;59577;52.122;5.406;2024-02-16T03:57:39;2.70;;;1.90;;
71734;SDS011;59577;52.122;5.406;2024-02-16T04:00:07;2.67;;;1.90;;
71734;SDS011;59577;52.122;5.406;2024-02-16T04:02:34;4.20;;;1.70;;
71734;SDS011;59577;52.122;5.406;2024-02-16T04:05:02;2.47;;;1.77;;
71734;SDS011;59577;52.122;5.406;2024-02-16T04:07:30;3.53;;;1.88;;
71734;SDS011;59577;52.122;5.406;2024-02-16T04:09:57;4.82;;;1.83;;
71734;SDS011;59577;52.122;5.406;2024-02-16T04:12:23;5.80;;;1.50;;
71734;SDS011;59577;52.122;5.406;2024-02-16T04:14:50;3.17;;;1.48;;
71734;SDS011;59577;52.122;5.406;2024-02-16T04:17:16;3.70;;;1.70;;
71734;SDS011;59577;52.122;5.406;2024-02-16T04:19:43;2.30;;;1.65;;
71734;SDS011;59577;52.122;5.406;2024-02-16T04:22:10;4.15;;;2.22;;
71734;SDS011;59577;52.122;5.406;2024-02-16T04:24:37;4.63;;;1.60;;
71734;SDS011;59577;52.122;5.406;2024-02-16T04:27:03;2.60;;;1.73;;
71734;SDS011;59577;52.122;5.406;2024-02-16T04:29:33;3.30;;;1.73;;
71734;SDS011;59577;52.122;5.406;2024-02-16T04:32:00;2.28;;;1.67;;
71734;SDS011;59577;52.122;5.406;2024-02-16T04:34:27;2.75;;;1.73;;
71734;SDS011;59577;52.122;5.406;2024-02-16T04:36:55;3.33;;;1.73;;
71734;SDS011;59577;52.122;5.406;2024-02-16T04:39:21;3.55;;;1.75;;
71734;SDS011;59577;52.122;5.406;2024-02-16T04:41:49;4.78;;;1.85;;
71734;SDS011;59577;52.122;5.406;2024-02-16T04:44:18;3.58;;;1.80;;
71734;SDS011;59577;52.122;5.406;2024-02-16T04:46:45;3.45;;;1.73;;
71734;SDS011;59577;52.122;5.406;2024-02-16T04:49:11;4.13;;;1.70;;
71734;SDS011;59577;52.122;5.406;2024-02-16T04:51:38;6.03;;;2.42;;
71734;SDS011;59577;52.122;5.406;2024-02-16T04:54:06;4.13;;;1.95;;
71734;SDS011;59577;52.122;5.406;2024-02-16T04:56:33;4.13;;;1.60;;
71734;SDS011;59577;52.122;5.406;2024-02-16T04:58:59;4.28;;;1.80;;
71734;SDS011;59577;52.122;5.406;2024-02-16T05:01:26;3.67;;;1.87;;
71734;SDS011;59577;52.122;5.406;2024-02-16T05:03:55;3.33;;;1.73;;
71734;SDS011;59577;52.122;5.406;2024-02-16T05:06:23;2.45;;;1.52;;
71734;SDS011;59577;52.122;5.406;2024-02-16T05:08:51;4.15;;;1.92;;
71734;SDS011;59577;52.122;5.406;2024-02-16T05:11:18;2.67;;;1.67;;
71734;SDS011;59577;52.122;5.406;2024-02-16T05:13:45;3.07;;;1.63;;
71734;SDS011;59577;52.122;5.406;2024-02-16T05:16:11;3.78;;;1.90;;
71734;SDS011;59577;52.122;5.406;2024-02-16T05:18:38;2.53;;;1.98;;
71734;SDS011;59577;52.122;5.406;2024-02-16T05:21:07;5.65;;;2.00;;
71734;SDS011;59577;52.122;5.406;2024-02-16T05:23:33;2.47;;;1.80;;
71734;SDS011;59577;52.122;5.406;2024-02-16T05:26:00;3.47;;;2.20;;
71734;SDS011;59577;52.122;5.406;2024-02-16T05:28:27;7.07;;;1.83;;
71734;SDS011;59577;52.122;5.406;2024-02-16T05:30:53;7.25;;;2.38;;
71734;SDS011;59577;52.122;5.406;2024-02-16T05:33:20;3.38;;;2.20;;
71734;SDS011;59577;52.122;5.406;2024-02-16T05:35:47;4.45;;;1.90;;
71734;SDS011;59577;52.122;5.406;2024-02-16T05:38:20;6.60;;;1.83;;
71734;SDS011;59577;52.122;5.406;2024-02-16T05:40:59;3.53;;;1.98;;
71734;SDS011;59577;52.122;5.406;2024-02-16T05:43:26;2.47;;;1.77;;
71734;SDS011;59577;52.122;5.406;2024-02-16T05:45:53;4.82;;;1.88;;
71734;SDS011;59577;52.122;5.406;2024-02-16T05:48:19;3.70;;;2.10;;
71734;SDS011;59577;52.122;5.406;2024-02-16T05:50:46;4.73;;;2.13;;
71734;SDS011;59577;52.122;5.406;2024-02-16T05:53:13;4.65;;;1.65;;
71734;SDS011;59577;52.122;5.406;2024-02-16T05:55:39;5.45;;;2.13;;
71734;SDS011;59577;52.122;5.406;2024-02-16T05:58:06;6.75;;;2.25;;
71734;SDS011;59577;52.122;5.406;2024-02-16T06:00:33;3.70;;;1.92;;
71734;SDS011;59577;52.122;5.406;2024-02-16T06:03:01;2.67;;;1.63;;
71734;SDS011;59577;52.122;5.406;2024-02-16T06:05:28;7.10;;;1.90;;
71734;SDS011;59577;52.122;5.406;2024-02-16T06:07:54;5.35;;;2.30;;
71734;SDS011;59577;52.122;5.406;2024-02-16T06:10:23;2.08;;;1.45;;
71734;SDS011;59577;52.122;5.406;2024-02-16T06:12:49;3.38;;;1.70;;
71734;SDS011;59577;52.122;5.406;2024-02-16T06:15:16;3.70;;;1.60;;
71734;SDS011;59577;52.122;5.406;2024-02-16T06:17:42;4.72;;;2.17;;
71734;SDS011;59577;52.122;5.406;2024-02-16T06:20:09;2.67;;;1.85;;
71734;SDS011;59577;52.122;5.406;2024-02-16T06:22:37;5.85;;;2.03;;
71734;SDS011;59577;52.122;5.406;2024-02-16T06:25:03;3.90;;;1.70;;
71734;SDS011;59577;52.122;5.406;2024-02-16T06:27:30;7.20;;;1.70;;
71734;SDS011;59577;52.122;5.406;2024-02-16T06:29:57;4.18;;;1.95;;
71734;SDS011;59577;52.122;5.406;2024-02-16T06:32:23;4.68;;;1.60;;
71734;SDS011;59577;52.122;5.406;2024-02-16T06:34:50;2.53;;;1.55;;
71734;SDS011;59577;52.122;5.406;2024-02-16T06:37:18;6.05;;;1.83;;
71734;SDS011;59577;52.122;5.406;2024-02-16T06:39:44;3.40;;;1.47;;
71734;SDS011;59577;52.122;5.406;2024-02-16T06:42:11;3.80;;;1.77;;
71734;SDS011;59577;52.122;5.406;2024-02-16T06:44:39;12.35;;;2.05;;
71734;SDS011;59577;52.122;5.406;2024-02-16T06:47:06;3.45;;;1.50;;
71734;SDS011;59577;52.122;5.406;2024-02-16T06:49:32;2.88;;;1.48;;
71734;SDS011;59577;52.122;5.406;2024-02-16T06:51:59;4.53;;;1.40;;
71734;SDS011;59577;52.122;5.406;2024-02-16T06:54:26;3.80;;;2.10;;
71734;SDS011;59577;52.122;5.406;2024-02-16T06:56:52;7.53;;;1.90;;
71734;SDS011;59577;52.122;5.406;2024-02-16T06:59:19;2.58;;;1.40;;
71734;SDS011;59577;52.122;5.406;2024-02-16T07:01:46;3.78;;;2.10;;
71734;SDS011;59577;52.122;5.406;2024-02-16T07:04:13;4.57;;;2.00;;
71734;SDS011;59577;52.122;5.406;2024-02-16T07:06:39;3.30;;;1.88;;
71734;SDS011;59577;52.122;5.406;2024-02-16T07:09:07;4.40;;;1.80;;
71734;SDS011;59577;52.122;5.406;2024-02-16T07:11:34;2.83;;;1.80;;
71734;SDS011;59577;52.122;5.406;2024-02-16T07:14:01;3.80;;;2.00;;
71734;SDS011;59577;52.122;5.406;2024-02-16T07:16:28;6.43;;;2.20;;
71734;SDS011;59577;52.122;5.406;2024-02-16T07:18:55;3.83;;;1.80;;
71734;SDS011;59577;52.122;5.406;2024-02-16T07:21:21;3.38;;;2.03;;
71734;SDS011;59577;52.122;5.406;2024-02-16T07:23:49;4.15;;;2.03;;
71734;SDS011;59577;52.122;5.406;2024-02-16T07:26:17;5.57;;;2.30;;
71734;SDS011;59577;52.122;5.406;2024-02-16T07:28:43;3.20;;;1.80;;
71734;SDS011;59577;52.122;5.406;2024-02-16T07:31:10;5.85;;;2.00;;
71734;SDS011;59577;52.122;5.406;2024-02-16T07:33:37;2.95;;;1.67;;
71734;SDS011;59577;52.122;5.406;2024-02-16T07:36:04;3.38;;;1.90;;
71734;SDS011;59577;52.122;5.406;2024-02-16T07:38:31;2.65;;;1.65;;
71734;SDS011;59577;52.122;5.406;2024-02-16T07:40:57;4.50;;;1.83;;
71734;SDS011;59577;52.122;5.406;2024-02-16T07:43:26;5.18;;;1.90;;
71734;SDS011;59577;52.122;5.406;2024-02-16T07:45:53;6.07;;;1.70;;
71734;SDS011;59577;52.122;5.406;2024-02-16T07:48:20;3.55;;;2.00;;
71734;SDS011;59577;52.122;5.406;2024-02-16T07:50:48;2.85;;;1.92;;
71734;SDS011;59577;52.122;5.406;2024-02-16T07:53:17;5.73;;;2.07;;
71734;SDS011;59577;52.122;5.406;2024-02-16T07:55:44;3.13;;;2.00;;
71734;SDS011;59577;52.122;5.406;2024-02-16T07:58:10;3.45;;;1.75;;
71734;SDS011;59577;52.122;5.406;2024-02-16T08:00:38;3.88;;;1.83;;
71734;SDS011;59577;52.122;5.406;2024-02-16T08:03:04;3.85;;;2.40;;
71734;SDS011;59577;52.122;5.406;2024-02-16T08:05:31;4.10;;;1.80;;
71734;SDS011;59577;52.122;5.406;2024-02-16T08:07:58;5.30;;;2.10;;
71734;SDS011;59577;52.122;5.406;2024-02-16T08:10:24;2.85;;;1.52;;
71734;SDS011;59577;52.122;5.406;2024-02-16T08:12:51;2.47;;;1.65;;
71734;SDS011;59577;52.122;5.406;2024-02-16T08:15:19;3.53;;;1.70;;
71734;SDS011;59577;52.122;5.406;2024-02-16T08:17:50;5.60;;;1.70;;
71734;SDS011;59577;52.122;5.406;2024-02-16T08:20:18;4.95;;;1.90;;
71734;SDS011;59577;52.122;5.406;2024-02-16T08:22:44;4.25;;;1.67;;
71734;SDS011;59577;52.122;5.406;2024-02-16T08:25:11;4.93;;;1.75;;
71734;SDS011;59577;52.122;5.406;2024-02-16T08:27:38;5.32;;;2.00;;
71734;SDS011;59577;52.122;5.406;2024-02-16T08:30:05;4.87;;;1.83;;
71734;SDS011;59577;52.122;5.406;2024-02-16T08:32:35;5.00;;;2.00;;
71734;SDS011;59577;52.122;5.406;2024-02-16T08:35:02;5.15;;;2.00;;
71734;SDS011;59577;52.122;5.406;2024-02-16T08:37:29;5.80;;;2.25;;
71734;SDS011;59577;52.122;5.406;2024-02-16T08:39:56;3.55;;;1.80;;
71734;SDS011;59577;52.122;5.406;2024-02-16T08:42:22;3.93;;;2.00;;
71734;SDS011;59577;52.122;5.406;2024-02-16T08:44:50;6.25;;;2.20;;
71734;SDS011;59577;52.122;5.406;2024-02-16T08:47:17;5.07;;;1.70;;
71734;SDS011;59577;52.122;5.406;2024-02-16T08:49:43;4.38;;;1.90;;
71734;SDS011;59577;52.122;5.406;2024-02-16T08:52:11;2.88;;;1.90;;
71734;SDS011;59577;52.122;5.406;2024-02-16T08:54:37;2.87;;;1.83;;
71734;SDS011;59577;52.122;5.406;2024-02-16T08:57:04;5.47;;;2.08;;
71734;SDS011;59577;52.122;5.406;2024-02-16T08:59:32;8.30;;;2.13;;
71734;SDS011;59577;52.122;5.406;2024-02-16T09:02:00;3.05;;;2.17;;
71734;SDS011;59577;52.122;5.406;2024-02-16T09:04:27;7.45;;;2.30;;
71734;SDS011;59577;52.122;5.406;2024-02-16T09:06:53;4.17;;;2.10;;
71734;SDS011;59577;52.122;5.406;2024-02-16T09:09:20;4.85;;;2.08;;
71734;SDS011;59577;52.122;5.406;2024-02-16T09:11:47;5.78;;;2.33;;
71734;SDS011;59577;52.122;5.406;2024-02-16T09:14:13;4.03;;;1.80;;
71734;SDS011;59577;52.122;5.406;2024-02-16T09:16:40;5.07;;;2.83;;
71734;SDS011;59577;52.122;5.406;2024-02-16T09:19:06;2.47;;;1.50;;
71734;SDS011;59577;52.122;5.406;2024-02-16T09:21:33;8.00;;;2.05;;
71734;SDS011;59577;52.122;5.406;2024-02-16T09:24:00;6.30;;;2.45;;
71734;SDS011;59577;52.122;5.406;2024-02-16T09:26:28;4.28;;;2.35;;
71734;SDS011;59577;52.122;5.406;2024-02-16T09:29:00;5.28;;;2.65;;
71734;SDS011;59577;52.122;5.406;2024-02-16T09:31:26;4.67;;;2.37;;
71734;SDS011;59577;52.122;5.406;2024-02-16T09:33:53;7.40;;;2.60;;
71734;SDS011;59577;52.122;5.406;2024-02-16T09:36:20;3.45;;;2.40;;
71734;SDS011;59577;52.122;5.406;2024-02-16T09:38:47;5.35;;;2.55;;
71734;SDS011;59577;52.122;5.406;2024-02-16T09:41:14;4.07;;;2.38;;
71734;SDS011;59577;52.122;5.406;2024-02-16T09:43:42;5.07;;;2.90;;
71734;SDS011;59577;52.122;5.406;2024-02-16T09:46:09;5.70;;;2.92;;
71734;SDS011;59577;52.122;5.406;2024-02-16T09:48:37;4.72;;;2.83;;
71734;SDS011;59577;52.122;5.406;2024-02-16T09:51:06;6.15;;;2.78;;
71734;SDS011;59577;52.122;5.406;2024-02-16T09:53:32;6.95;;;3.03;;
71734;SDS011;59577;52.122;5.406;2024-02-16T09:55:59;4.97;;;2.70;;
71734;SDS011;59577;52.122;5.406;2024-02-16T09:58:27;5.30;;;2.88;;
71734;SDS011;59577;52.122;5.406;2024-02-16T10:00:55;6.00;;;2.97;;
71734;SDS011;59577;52.122;5.406;2024-02-16T10:03:27;4.65;;;2.63;;
71734;SDS011;59577;52.122;5.406;2024-02-16T10:06:10;4.43;;;2.55;;
71734;SDS011;59577;52.122;5.406;2024-02-16T10:11:21;5.68;;;3.35;;
71734;SDS011;59577;52.122;5.406;2024-02-16T10:14:01;4.55;;;2.85;;
71734;SDS011;59577;52.122;5.406;2024-02-16T10:16:29;6.78;;;2.70;;
71734;SDS011;59577;52.122;5.406;2024-02-16T10:19:06;7.47;;;2.65;;
71734;SDS011;59577;52.122;5.406;2024-02-16T10:21:34;6.90;;;3.03;;
71734;SDS011;59577;52.122;5.406;2024-02-16T10:24:08;8.05;;;3.53;;
71734;SDS011;59577;52.122;5.406;2024-02-16T10:26:36;8.13;;;3.47;;
71734;SDS011;59577;52.122;5.406;2024-02-16T10:29:08;4.65;;;3.20;;
71734;SDS011;59577;52.122;5.406;2024-02-16T10:31:36;5.32;;;3.20;;
71734;SDS011;59577;52.122;5.406;2024-02-16T10:34:04;5.33;;;3.27;;
71734;SDS011;59577;52.122;5.406;2024-02-16T10:36:33;7.78;;;3.70;;
71734;SDS011;59577;52.122;5.406;2024-02-16T10:39:05;5.55;;;3.20;;
71734;SDS011;59577;52.122;5.406;2024-02-16T10:41:33;6.25;;;3.30;;
71734;SDS011;59577;52.122;5.406;2024-02-16T10:44:03;5.82;;;3.42;;
71734;SDS011;59577;52.122;5.406;2024-02-16T10:46:32;6.17;;;4.20;;
71734;SDS011;59577;52.122;5.406;2024-02-16T10:49:00;8.40;;;3.38;;
71734;SDS011;59577;52.122;5.406;2024-02-16T10:51:31;5.63;;;3.45;;
71734;SDS011;59577;52.122;5.406;2024-02-16T10:54:02;4.63;;;3.13;;
71734;SDS011;59577;52.122;5.406;2024-02-16T10:56:34;10.23;;;3.50;;
71734;SDS011;59577;52.122;5.406;2024-02-16T10:59:02;4.77;;;3.30;;
71734;SDS011;59577;52.122;5.406;2024-02-16T11:01:31;6.85;;;3.63;;
71734;SDS011;59577;52.122;5.406;2024-02-16T11:04:06;4.68;;;3.60;;
71734;SDS011;59577;52.122;5.406;2024-02-16T11:06:55;8.15;;;3.75;;
71734;SDS011;59577;52.122;5.406;2024-02-16T11:09:29;9.98;;;4.60;;
71734;SDS011;59577;52.122;5.406;2024-02-16T11:12:01;7.70;;;4.33;;
71734;SDS011;59577;52.122;5.406;2024-02-16T11:14:35;7.00;;;4.43;;
71734;SDS011;59577;52.122;5.406;2024-02-16T11:17:13;6.35;;;4.68;;
71734;SDS011;59577;52.122;5.406;2024-02-16T11:19:46;7.38;;;5.05;;
71734;SDS011;59577;52.122;5.406;2024-02-16T11:22:15;7.55;;;4.55;;
71734;SDS011;59577;52.122;5.406;2024-02-16T11:24:44;5.90;;;4.80;;
71734;SDS011;59577;52.122;5.406;2024-02-16T11:27:14;9.73;;;5.05;;
71734;SDS011;59577;52.122;5.406;2024-02-16T11:29:46;8.88;;;5.28;;
71734;SDS011;59577;52.122;5.406;2024-02-16T11:32:12;10.57;;;4.30;;
71734;SDS011;59577;52.122;5.406;2024-02-16T11:34:39;7.68;;;4.32;;
71734;SDS011;59577;52.122;5.406;2024-02-16T11:37:06;5.03;;;4.20;;
71734;SDS011;59577;52.122;5.406;2024-02-16T11:39:33;7.40;;;4.68;;
71734;SDS011;59577;52.122;5.406;2024-02-16T11:42:05;8.02;;;4.88;;
71734;SDS011;59577;52.122;5.406;2024-02-16T11:44:33;7.60;;;4.63;;
71734;SDS011;59577;52.122;5.406;2024-02-16T11:47:02;7.93;;;4.65;;
71734;SDS011;59577;52.122;5.406;2024-02-16T11:49:30;5.33;;;4.60;;
71734;SDS011;59577;52.122;5.406;2024-02-16T11:51:58;6.75;;;5.00;;
71734;SDS011;59577;52.122;5.406;2024-02-16T11:54:26;12.10;;;5.07;;
71734;SDS011;59577;52.122;5.406;2024-02-16T11:56:53;5.47;;;4.82;;
71734;SDS011;59577;52.122;5.406;2024-02-16T11:59:19;8.18;;;5.22;;
71734;SDS011;59577;52.122;5.406;2024-02-16T12:01:53;9.37;;;5.20;;
71734;SDS011;59577;52.122;5.406;2024-02-16T12:04:25;10.15;;;5.40;;
71734;SDS011;59577;52.122;5.406;2024-02-16T12:06:59;9.27;;;4.57;;
71734;SDS011;59577;52.122;5.406;2024-02-16T12:09:31;11.05;;;4.90;;
71734;SDS011;59577;52.122;5.406;2024-02-16T12:12:02;6.03;;;4.65;;
71734;SDS011;59577;52.122;5.406;2024-02-16T12:14:29;8.17;;;4.20;;
71734;SDS011;59577;52.122;5.406;2024-02-16T12:16:56;7.82;;;5.07;;
71734;SDS011;59577;52.122;5.406;2024-02-16T12:19:24;8.85;;;5.20;;
71734;SDS011;59577;52.122;5.406;2024-02-16T12:21:52;6.82;;;4.80;;
71734;SDS011;59577;52.122;5.406;2024-02-16T12:24:19;10.35;;;5.03;;
71734;SDS011;59577;52.122;5.406;2024-02-16T12:26:46;11.47;;;4.50;;
71734;SDS011;59577;52.122;5.406;2024-02-16T12:29:13;7.10;;;4.40;;
71734;SDS011;59577;52.122;5.406;2024-02-16T12:31:40;6.15;;;4.15;;
71734;SDS011;59577;52.122;5.406;2024-02-16T12:34:09;5.25;;;3.70;;
71734;SDS011;59577;52.122;5.406;2024-02-16T12:36:40;5.22;;;3.05;;
71734;SDS011;59577;52.122;5.406;2024-02-16T12:39:13;4.50;;;2.83;;
71734;SDS011;59577;52.122;5.406;2024-02-16T12:41:42;3.90;;;2.33;;
71734;SDS011;59577;52.122;5.406;2024-02-16T12:44:10;3.47;;;1.80;;
71734;SDS011;59577;52.122;5.406;2024-02-16T12:46:37;5.57;;;1.60;;
71734;SDS011;59577;52.122;5.406;2024-02-16T12:49:05;3.47;;;1.73;;
71734;SDS011;59577;52.122;5.406;2024-02-16T12:51:32;3.47;;;1.77;;
71734;SDS011;59577;52.122;5.406;2024-02-16T12:54:00;2.85;;;1.58;;
71734;SDS011;59577;52.122;5.406;2024-02-16T12:56:30;4.20;;;1.73;;
71734;SDS011;59577;52.122;5.406;2024-02-16T12:58:57;3.83;;;1.42;;
71734;SDS011;59577;52.122;5.406;2024-02-16T13:01:27;2.78;;;1.40;;
71734;SDS011;59577;52.122;5.406;2024-02-16T13:03:54;2.43;;;1.10;;
71734;SDS011;59577;52.122;5.406;2024-02-16T13:06:20;2.67;;;1.48;;
71734;SDS011;59577;52.122;5.406;2024-02-16T13:08:53;1.60;;;0.88;;
71734;SDS011;59577;52.122;5.406;2024-02-16T13:11:20;3.38;;;1.40;;
71734;SDS011;59577;52.122;5.406;2024-02-16T13:13:46;3.13;;;1.42;;
71734;SDS011;59577;52.122;5.406;2024-02-16T13:16:13;2.57;;;0.90;;
71734;SDS011;59577;52.122;5.406;2024-02-16T13:18:40;2.00;;;1.10;;
71734;SDS011;59577;52.122;5.406;2024-02-16T13:21:07;1.17;;;0.90;;
71734;SDS011;59577;52.122;5.406;2024-02-16T13:23:34;1.92;;;1.20;;
71734;SDS011;59577;52.122;5.406;2024-02-16T13:26:01;2.40;;;1.00;;
71734;SDS011;59577;52.122;5.406;2024-02-16T13:28:27;2.80;;;0.90;;
71734;SDS011;59577;52.122;5.406;2024-02-16T13:30:54;2.67;;;0.98;;
71734;SDS011;59577;52.122;5.406;2024-02-16T13:33:20;3.63;;;1.17;;
71734;SDS011;59577;52.122;5.406;2024-02-16T13:35:49;2.92;;;1.23;;
71734;SDS011;59577;52.122;5.406;2024-02-16T13:38:16;1.85;;;1.02;;
71734;SDS011;59577;52.122;5.406;2024-02-16T13:40:43;4.07;;;1.40;;
71734;SDS011;59577;52.122;5.406;2024-02-16T13:43:09;2.05;;;1.13;;
71734;SDS011;59577;52.122;5.406;2024-02-16T13:45:49;1.10;;;0.80;;
71734;SDS011;59577;52.122;5.406;2024-02-16T13:48:20;3.25;;;1.00;;
71734;SDS011;59577;52.122;5.406;2024-02-16T13:50:47;3.08;;;0.93;;
71734;SDS011;59577;52.122;5.406;2024-02-16T13:53:14;1.07;;;0.70;;
71734;SDS011;59577;52.122;5.406;2024-02-16T13:55:46;1.50;;;0.90;;
71734;SDS011;59577;52.122;5.406;2024-02-16T13:58:13;3.03;;;1.00;;
71734;SDS011;59577;52.122;5.406;2024-02-16T14:00:40;1.88;;;0.73;;
71734;SDS011;59577;52.122;5.406;2024-02-16T14:03:08;2.60;;;0.80;;
71734;SDS011;59577;52.122;5.406;2024-02-16T14:05:39;5.00;;;0.83;;
71734;SDS011;59577;52.122;5.406;2024-02-16T14:08:06;2.80;;;1.05;;
71734;SDS011;59577;52.122;5.406;2024-02-16T14:10:35;2.28;;;1.02;;
71734;SDS011;59577;52.122;5.406;2024-02-16T14:13:02;3.75;;;0.90;;
71734;SDS011;59577;52.122;5.406;2024-02-16T14:15:30;4.60;;;1.35;;
71734;SDS011;59577;52.122;5.406;2024-02-16T14:17:58;3.23;;;1.00;;
71734;SDS011;59577;52.122;5.406;2024-02-16T14:20:31;1.55;;;1.00;;
71734;SDS011;59577;52.122;5.406;2024-02-16T14:22:58;2.13;;;1.13;;
71734;SDS011;59577;52.122;5.406;2024-02-16T14:25:24;1.85;;;1.45;;
71734;SDS011;59577;52.122;5.406;2024-02-16T14:27:52;2.83;;;1.20;;
71734;SDS011;59577;52.122;5.406;2024-02-16T14:30:18;2.33;;;1.10;;
71734;SDS011;59577;52.122;5.406;2024-02-16T14:32:46;3.97;;;1.00;;
71734;SDS011;59577;52.122;5.406;2024-02-16T14:35:13;1.88;;;0.90;;
71734;SDS011;59577;52.122;5.406;2024-02-16T14:37:40;2.55;;;1.27;;
71734;SDS011;59577;52.122;5.406;2024-02-16T14:40:06;1.70;;;1.15;;
71734;SDS011;59577;52.122;5.406;2024-02-16T14:42:36;3.60;;;1.40;;
71734;SDS011;59577;52.122;5.406;2024-02-16T14:45:06;1.63;;;1.38;;
71734;SDS011;59577;52.122;5.406;2024-02-16T14:47:36;2.40;;;1.20;;
71734;SDS011;59577;52.122;5.406;2024-02-16T14:50:03;3.05;;;1.30;;
71734;SDS011;59577;52.122;5.406;2024-02-16T14:52:34;3.20;;;1.33;;
71734;SDS011;59577;52.122;5.406;2024-02-16T14:55:01;2.70;;;1.40;;